Main page
METAR-TAF:

Airports :

Milan, Italy

Malpensa Airport

latitude: 45-37N, longitude: 008-44E, elevation: 234 m

Current weather observation

The report was made 29 minutes ago, at 18:50 UTC
Wind 5 kt from the West/Southwest
Temperature 12°C
Humidity 76%
Pressure 1013 hPa
Visibility 10 km or more
no clouds below 1500 m and no cumulonimbus

METAR: LIMC 011850Z 24005KT CAVOK 12/08 Q1013 NOSIG

Time: 21:19 (19:19 UTC)

Forecast

The report was made 2 hours and 19 minutes ago, at 17:00 UTC
Forecast valid from 01 at 18 UTC to 02 at 24 UTC
Wind 6 kt from variable directions
Visibility 10 km or more
Scattered clouds at a height of 3000 ft
Broken clouds at a height of 6000 ft
Temporary
from 02 at 00 UTC to 02 at 06 UTC
Visibility: 0900 m
patches of fog

TAF: LIMC 011700Z 0118/0224 VRB06KT 9999 SCT030 BKN060 TEMPO 0200/0206 0900 BCFG

METAR-TAF

Weather observations and forecasts of more than 4000 airports (METAR and TAF reports).

The available stations are represented by yellow and red dots on the map.

Hover mouse over dot to see the name of the station.

Then click to see weather observations and forecasts.

To change the map : click on the green buttons with a black cross to zoom in, on the green button with a dash to zoom out, or on the green arrows for adjacent maps.


METAR-TAF: